Aviation Digital Data Service (ADDS)

Output produced by METARs form (0937 UTC 20 September 2019)
found at http://aviationweather.gov/metar/data/
 
METAR text: KUAO 200853Z AUTO 00000KT 10SM FEW034 BKN100 14/13 A3011 RMK AO2 SLP194 T01440133 53005
Conditions at: KUAO (AURORA , OR, US) observed 0853 UTC 20 September 2019
Temperature: 14.4°C (58°F)
Dewpoint: 13.3°C (56°F) [RH = 93%]
Pressure (altimeter): 30.11 inches Hg (1019.7 mb)
[Sea-level pressure: 1019.4 mb]
Winds: calm
Visibility: 10 or more miles (16+ km)
Ceiling: 10000 feet AGL
Clouds: few clouds at 3400 feet AGL
broken clouds at 10000 feet AGL
Weather: automated observation with no human augmentation;
there may or may not be significant weather present at this time

METAR text: KUAO 200753Z AUTO 20003KT 10SM BKN031 OVC040 15/14 A3010 RMK AO2 SLP192 T01500139 402110117
Conditions at: KUAO (AURORA , OR, US) observed 0753 UTC 20 September 2019
Temperature: 15.0°C (59°F)
Dewpoint: 13.9°C (57°F) [RH = 93%]
Pressure (altimeter): 30.10 inches Hg (1019.4 mb)
[Sea-level pressure: 1019.2 mb]
Winds: from the SSW (200 degrees) at 3 MPH (3 knots; 1.5 m/s)
Visibility: 10 or more miles (16+ km)
Ceiling: 3100 feet AGL
Clouds: broken clouds at 3100 feet AGL
overcast cloud deck at 4000 feet AGL
Weather: automated observation with no human augmentation;
there may or may not be significant weather present at this time

Forecast for: KUAO (AURORA , OR, US)
Text: KUAO 200807Z 2008/2106 20004KT P6SM SCT025 OVC045
Forecast period: 0800 to 1300 UTC 20 September 2019
Forecast type: FROM: standard forecast or significant change
Winds: from the SSW (200 degrees) at 5 MPH (4 knots; 2.1 m/s)
Visibility: 6 or more miles 10+ km)
Ceiling: 4500 feet AGL
Clouds: scattered clouds at 2500 feet AGL
overcast cloud deck at 4500 feet AGL
Weather: no significant weather forecast for this period
Text: FM201300 20003KT P6SM BKN025 OVC040
Forecast period: 1300 to 2000 UTC 20 September 2019
Forecast type: FROM: standard forecast or significant change
Winds: from the SSW (200 degrees) at 3 MPH (3 knots; 1.5 m/s)
Visibility: 6 or more miles 10+ km)
Ceiling: 2500 feet AGL
Clouds: broken clouds at 2500 feet AGL
overcast cloud deck at 4000 feet AGL
Weather: no significant weather forecast for this period
Text: FM202000 21004KT P6SM SCT030 OVC045
Forecast period: 2000 UTC 20 September 2019 to 0600 UTC 21 September 2019
Forecast type: FROM: standard forecast or significant change
Winds: from the SSW (210 degrees) at 5 MPH (4 knots; 2.1 m/s)
Visibility: 6 or more miles 10+ km)
Ceiling: 4500 feet AGL
Clouds: scattered clouds at 3000 feet AGL
overcast cloud deck at 4500 feet AGL
Weather: no significant weather forecast for this period